createdAt,value
2023-01-30T00:01:57.130Z,27.90
2023-01-30T00:04:26.691Z,31.63
2023-01-30T00:06:54.909Z,26.17
2023-01-30T00:09:23.075Z,30.27
2023-01-30T00:11:51.252Z,26.70
2023-01-30T00:14:19.400Z,29.30
2023-01-30T00:16:47.706Z,29.73
2023-01-30T00:19:15.853Z,27.98
2023-01-30T00:21:45.389Z,27.35
2023-01-30T00:24:13.722Z,29.38
2023-01-30T00:26:42.009Z,28.02
2023-01-30T00:29:10.296Z,29.10
2023-01-30T00:31:38.483Z,28.00
2023-01-30T00:34:06.668Z,28.70
2023-01-30T00:36:34.825Z,30.35
2023-01-30T00:39:04.430Z,29.98
2023-01-30T00:41:46.473Z,29.98
2023-01-30T00:47:09.029Z,26.95
2023-01-30T00:49:37.989Z,29.55
2023-01-30T00:52:06.802Z,26.67
2023-01-30T00:54:36.494Z,27.52
2023-01-30T00:57:04.841Z,29.02
2023-01-30T00:59:33.010Z,29.85
2023-01-30T01:02:01.301Z,30.88
2023-01-30T01:04:29.487Z,27.65
2023-01-30T01:06:57.652Z,29.63
2023-01-30T01:09:25.831Z,27.65
2023-01-30T01:11:55.364Z,30.83
2023-01-30T01:14:23.566Z,27.65
2023-01-30T01:16:52.048Z,28.83
2023-01-30T01:19:20.217Z,29.65
2023-01-30T01:21:48.513Z,30.67
2023-01-30T01:24:17.992Z,29.52
2023-01-30T01:26:46.462Z,29.85
2023-01-30T01:29:17.506Z,27.58
2023-01-30T01:31:46.060Z,27.57
2023-01-30T01:34:14.363Z,28.20
2023-01-30T01:36:53.283Z,31.08
2023-01-30T01:39:22.479Z,26.98
2023-01-30T01:41:49.632Z,28.70
2023-01-30T01:44:19.252Z,28.40
2023-01-30T01:46:51.858Z,31.65
2023-01-30T01:49:24.890Z,25.85
2023-01-30T01:51:57.362Z,26.45
2023-01-30T01:54:33.297Z,27.75
2023-01-30T01:57:06.348Z,28.08
2023-01-30T01:59:41.481Z,29.50
2023-01-30T02:02:13.474Z,28.08
2023-01-30T02:07:30.484Z,26.42
2023-01-30T02:09:59.075Z,27.80
2023-01-30T02:12:27.627Z,26.98
2023-01-30T02:14:58.933Z,31.48
2023-01-30T02:17:27.404Z,27.15
2023-01-30T02:20:02.082Z,28.42
2023-01-30T02:23:08.333Z,25.95
2023-01-30T02:26:22.437Z,24.98
2023-01-30T02:29:25.807Z,23.67
2023-01-30T02:32:00.810Z,25.20
2023-01-30T02:34:40.145Z,25.00
2023-01-30T02:37:23.621Z,22.45
2023-01-30T02:40:05.854Z,24.23
2023-01-30T02:42:39.731Z,25.02
2023-01-30T02:45:13.603Z,24.45
2023-01-30T02:47:50.346Z,25.30
2023-01-30T02:50:23.338Z,24.25
2023-01-30T02:52:51.539Z,22.42
2023-01-30T02:55:22.016Z,22.38
2023-01-30T02:57:50.171Z,21.02
2023-01-30T03:00:24.385Z,19.60
2023-01-30T03:03:20.746Z,18.88
2023-01-30T03:06:05.281Z,18.65
2023-01-30T03:08:41.508Z,19.75
2023-01-30T03:11:11.235Z,18.15
2023-01-30T03:13:49.200Z,19.85
2023-01-30T03:16:22.224Z,17.88
2023-01-30T03:18:51.946Z,16.02
2023-01-30T03:21:21.016Z,16.77
2023-01-30T03:23:49.221Z,17.85
2023-01-30T03:26:21.181Z,18.52
2023-01-30T03:31:18.977Z,17.70
2023-01-30T03:33:47.282Z,17.58
2023-01-30T03:36:16.958Z,18.17
2023-01-30T03:38:45.318Z,18.23
2023-01-30T03:41:13.545Z,17.00
2023-01-30T03:43:41.695Z,17.25
2023-01-30T03:46:09.916Z,16.60
2023-01-30T03:48:38.065Z,17.05
2023-01-30T03:51:06.683Z,17.50
2023-01-30T03:53:36.222Z,17.77
2023-01-30T03:56:04.545Z,14.55
2023-01-30T03:58:32.717Z,15.05
2023-01-30T04:01:00.936Z,15.35
2023-01-30T04:03:29.118Z,16.80
2023-01-30T04:05:57.287Z,14.50
2023-01-30T04:08:25.477Z,15.07
2023-01-30T04:10:55.067Z,15.05
2023-01-30T04:13:23.233Z,15.45
2023-01-30T04:15:51.401Z,15.60
2023-01-30T04:18:19.551Z,15.80
2023-01-30T04:20:47.734Z,18.45
2023-01-30T04:23:15.881Z,20.23
2023-01-30T04:25:48.437Z,22.25
2023-01-30T04:28:18.008Z,19.63
2023-01-30T04:30:46.182Z,18.85
2023-01-30T04:33:14.351Z,22.33
2023-01-30T04:35:42.490Z,20.77
2023-01-30T04:38:10.655Z,17.55
2023-01-30T04:40:38.790Z,22.23
2023-01-30T04:43:06.946Z,19.98
2023-01-30T04:45:36.473Z,22.13
2023-01-30T04:48:05.081Z,22.75
2023-01-30T04:50:33.256Z,20.10
2023-01-30T04:53:01.432Z,21.95
2023-01-30T04:55:29.832Z,20.27
2023-01-30T04:57:58.177Z,20.23
2023-01-30T05:00:26.940Z,15.48
2023-01-30T05:02:56.914Z,15.43
2023-01-30T05:05:26.049Z,14.65
2023-01-30T05:07:54.541Z,15.18
2023-01-30T05:10:23.249Z,14.93
2023-01-30T05:12:51.438Z,16.25
2023-01-30T05:15:20.071Z,15.07
2023-01-30T05:17:48.427Z,14.27
2023-01-30T05:20:18.083Z,13.10
2023-01-30T05:22:46.250Z,13.02
2023-01-30T05:25:14.386Z,15.95
2023-01-30T05:27:42.554Z,14.20
2023-01-30T05:30:11.902Z,14.38
2023-01-30T05:32:40.062Z,14.30
2023-01-30T05:35:09.510Z,14.70
2023-01-30T05:37:39.118Z,14.95
2023-01-30T05:40:09.006Z,15.73
2023-01-30T05:42:37.204Z,17.67
2023-01-30T05:45:05.834Z,22.85
2023-01-30T05:47:33.981Z,15.93
2023-01-30T05:50:02.140Z,13.93
2023-01-30T05:52:30.327Z,14.73
2023-01-30T05:54:59.855Z,15.18
2023-01-30T05:57:27.984Z,14.13
2023-01-30T05:59:56.117Z,14.70
2023-01-30T06:02:24.359Z,13.45
2023-01-30T06:04:52.525Z,13.65
2023-01-30T06:07:20.669Z,13.00
2023-01-30T06:09:48.868Z,15.57
2023-01-30T06:12:18.394Z,13.52
2023-01-30T06:14:46.541Z,13.05
2023-01-30T06:17:14.733Z,13.63
2023-01-30T06:19:42.993Z,13.15
2023-01-30T06:22:11.132Z,13.38
2023-01-30T06:24:39.432Z,13.15
2023-01-30T06:27:07.557Z,13.50
2023-01-30T06:29:37.088Z,15.13
2023-01-30T06:32:05.585Z,12.35
2023-01-30T06:34:33.725Z,14.43
2023-01-30T06:37:01.887Z,13.63
2023-01-30T06:39:30.036Z,12.80
2023-01-30T06:41:58.189Z,13.20
2023-01-30T06:44:26.350Z,12.27
2023-01-30T06:46:55.893Z,12.82
2023-01-30T06:49:24.178Z,13.43
2023-01-30T06:51:52.339Z,12.48
2023-01-30T06:54:20.618Z,11.65
2023-01-30T06:56:49.135Z,13.82
2023-01-30T06:59:17.292Z,11.77
2023-01-30T07:01:45.489Z,12.10
2023-01-30T07:04:15.120Z,12.23
2023-01-30T07:06:43.332Z,13.00
2023-01-30T07:09:11.846Z,11.45
2023-01-30T07:11:39.981Z,12.50
2023-01-30T07:14:08.144Z,11.48
2023-01-30T07:16:36.305Z,11.55
2023-01-30T07:19:04.464Z,12.18
2023-01-30T07:21:34.027Z,11.75
2023-01-30T07:24:02.213Z,12.68
2023-01-30T07:26:31.366Z,11.70
2023-01-30T07:28:59.624Z,10.07
2023-01-30T07:31:27.885Z,11.80
2023-01-30T07:33:56.069Z,11.38
2023-01-30T07:36:24.588Z,10.02
2023-01-30T07:38:54.147Z,10.38
2023-01-30T07:41:22.298Z,9.20
2023-01-30T07:43:50.623Z,9.68
2023-01-30T07:46:18.791Z,9.48
2023-01-30T07:48:47.202Z,9.55
2023-01-30T07:51:15.539Z,7.63
2023-01-30T07:53:43.706Z,6.43
2023-01-30T07:56:18.604Z,7.78
2023-01-30T07:58:47.048Z,6.78
2023-01-30T08:01:15.713Z,6.88
2023-01-30T08:03:46.216Z,7.65
2023-01-30T08:06:14.959Z,7.32
2023-01-30T08:08:43.505Z,7.68
2023-01-30T08:11:13.042Z,7.10
2023-01-30T08:13:41.203Z,5.70
2023-01-30T08:16:09.738Z,8.20
2023-01-30T08:18:37.917Z,5.82
2023-01-30T08:21:08.180Z,5.28
2023-01-30T08:23:36.368Z,5.30
2023-01-30T08:26:06.260Z,5.78
2023-01-30T08:28:35.789Z,5.45
2023-01-30T08:31:04.021Z,5.70
2023-01-30T08:33:32.242Z,4.90
2023-01-30T08:36:00.391Z,5.85
2023-01-30T08:38:28.617Z,5.07
2023-01-30T08:40:58.001Z,5.13
2023-01-30T08:43:26.273Z,4.45
2023-01-30T08:45:56.645Z,4.55
2023-01-30T08:48:25.107Z,4.85
2023-01-30T08:50:54.134Z,5.10
2023-01-30T08:53:22.874Z,5.57
2023-01-30T08:55:52.549Z,4.93
2023-01-30T08:58:20.997Z,4.05
2023-01-30T09:00:50.655Z,4.82
2023-01-30T09:03:21.015Z,4.95
2023-01-30T09:05:54.873Z,4.68
2023-01-30T09:08:23.112Z,5.35
2023-01-30T09:10:51.284Z,4.72
2023-01-30T09:13:19.454Z,4.60
2023-01-30T09:15:47.710Z,3.92
2023-01-30T09:18:15.974Z,5.22
2023-01-30T09:20:45.493Z,6.85
2023-01-30T09:23:13.670Z,4.68
2023-01-30T09:25:41.992Z,4.97
2023-01-30T09:28:10.134Z,3.67
2023-01-30T09:30:38.358Z,5.70
2023-01-30T09:33:06.531Z,3.30
2023-01-30T09:35:34.701Z,7.70
2023-01-30T09:38:05.712Z,3.90
2023-01-30T09:40:37.109Z,4.20
2023-01-30T09:43:22.373Z,3.63
2023-01-30T09:46:11.836Z,5.22
2023-01-30T09:48:50.079Z,3.50
2023-01-30T09:51:41.806Z,6.25
2023-01-30T09:56:45.863Z,4.00
2023-01-30T09:59:26.724Z,3.42
2023-01-30T10:02:01.344Z,3.05
2023-01-30T10:04:35.149Z,2.80
2023-01-30T10:07:15.431Z,3.38
2023-01-30T10:09:54.897Z,2.80
2023-01-30T10:12:35.132Z,3.67
2023-01-30T10:15:23.905Z,3.83
2023-01-30T10:18:09.945Z,3.38
2023-01-30T10:20:47.663Z,2.30
2023-01-30T10:23:32.160Z,3.78
2023-01-30T10:26:06.488Z,4.03
2023-01-30T10:28:39.633Z,3.22
2023-01-30T10:31:12.416Z,3.95
2023-01-30T10:33:45.367Z,3.67
2023-01-30T10:36:17.048Z,4.85
2023-01-30T10:38:48.565Z,2.83
2023-01-30T10:41:27.077Z,4.10
2023-01-30T10:44:02.569Z,3.15
2023-01-30T10:46:51.618Z,3.65
2023-01-30T10:49:25.890Z,2.70
2023-01-30T10:51:59.821Z,3.08
2023-01-30T10:54:34.038Z,2.63
2023-01-30T10:57:16.538Z,3.20
2023-01-30T10:59:54.049Z,4.22
2023-01-30T11:02:26.672Z,5.03
2023-01-30T11:05:00.322Z,3.30
2023-01-30T11:07:32.761Z,3.97
2023-01-30T11:10:01.787Z,4.13
2023-01-30T11:12:31.313Z,4.45
2023-01-30T11:15:02.592Z,4.10
2023-01-30T11:17:34.517Z,4.32
2023-01-30T11:22:35.375Z,8.80
2023-01-30T11:25:07.345Z,6.30
2023-01-30T11:30:13.680Z,8.40
2023-01-30T11:32:43.818Z,15.88
2023-01-30T11:35:30.999Z,6.85
2023-01-30T11:38:13.854Z,7.97
2023-01-30T11:40:42.177Z,4.22
2023-01-30T11:43:15.876Z,9.98
2023-01-30T11:45:47.551Z,6.93
2023-01-30T11:48:33.238Z,5.97
2023-01-30T11:53:40.103Z,4.78
2023-01-30T11:56:15.828Z,8.13
2023-01-30T11:58:50.019Z,4.43
2023-01-30T12:01:18.429Z,11.52
2023-01-30T12:03:51.883Z,8.05
2023-01-30T12:06:25.355Z,9.15
2023-01-30T12:08:55.861Z,5.32
2023-01-30T12:11:32.818Z,6.03
2023-01-30T12:14:33.630Z,7.13
2023-01-30T12:17:11.023Z,11.25
2023-01-30T12:19:50.361Z,9.35
2023-01-30T12:22:25.491Z,7.93
2023-01-30T12:25:00.331Z,8.20
2023-01-30T12:27:45.648Z,12.32
2023-01-30T12:30:25.967Z,6.55
2023-01-30T12:32:59.276Z,6.60
2023-01-30T12:35:37.183Z,10.40
2023-01-30T12:38:17.052Z,11.70
2023-01-30T12:40:53.559Z,5.68
2023-01-30T12:43:40.538Z,9.82
2023-01-30T12:46:25.954Z,8.23
2023-01-30T12:49:11.383Z,15.10
2023-01-30T12:51:56.228Z,55.22
2023-01-30T12:54:38.748Z,14.95
2023-01-30T12:57:16.341Z,16.23
2023-01-30T12:59:54.028Z,12.70
2023-01-30T13:02:48.028Z,9.35
2023-01-30T13:05:26.715Z,16.30
2023-01-30T13:08:19.223Z,15.75
2023-01-30T13:10:52.907Z,19.40
2023-01-30T13:13:27.719Z,10.07
2023-01-30T13:16:03.637Z,12.23
2023-01-30T13:18:36.845Z,12.88
2023-01-30T13:21:11.816Z,23.25
2023-01-30T13:23:50.870Z,13.82
2023-01-30T13:26:22.286Z,11.98
2023-01-30T13:28:52.555Z,12.38
2023-01-30T13:31:23.393Z,12.90
2023-01-30T13:33:57.628Z,9.00
2023-01-30T13:36:30.607Z,13.07
2023-01-30T13:39:02.481Z,8.27
2023-01-30T13:41:37.262Z,8.73
2023-01-30T13:44:16.582Z,17.67
2023-01-30T13:46:45.575Z,10.05
2023-01-30T13:49:22.244Z,9.95
2023-01-30T13:51:54.287Z,9.32
2023-01-30T13:54:43.732Z,13.55
2023-01-30T13:57:21.191Z,8.18
2023-01-30T14:00:20.090Z,6.18
2023-01-30T14:03:17.907Z,11.02
2023-01-30T14:06:14.372Z,11.30
2023-01-30T14:08:52.384Z,13.00
2023-01-30T14:11:37.079Z,9.52
2023-01-30T14:14:21.973Z,8.73
2023-01-30T14:16:52.560Z,8.40
2023-01-30T14:19:39.358Z,7.00
2023-01-30T14:22:22.399Z,10.40
2023-01-30T14:25:29.182Z,9.73
2023-01-30T14:28:44.272Z,10.95
2023-01-30T14:31:12.794Z,10.70
2023-01-30T14:33:51.328Z,12.02
2023-01-30T14:36:36.998Z,15.23
2023-01-30T14:39:39.753Z,11.35
2023-01-30T14:42:21.838Z,6.53
2023-01-30T14:47:34.365Z,9.77
2023-01-30T14:50:21.835Z,10.90
2023-01-30T14:52:55.579Z,14.00
2023-01-30T14:55:29.578Z,8.27
2023-01-30T14:58:01.373Z,8.55
2023-01-30T15:00:32.518Z,10.80
2023-01-30T15:03:04.692Z,12.32
2023-01-30T15:05:34.816Z,10.50
2023-01-30T15:08:14.110Z,13.75
2023-01-30T15:11:09.683Z,9.68
2023-01-30T15:13:55.760Z,14.48
2023-01-30T15:16:47.316Z,11.60
2023-01-30T15:19:36.199Z,9.63
2023-01-30T15:22:17.127Z,13.70
2023-01-30T15:25:12.019Z,12.80
2023-01-30T15:27:56.979Z,8.18
2023-01-30T15:30:37.769Z,10.32
2023-01-30T15:33:22.818Z,9.30
2023-01-30T15:35:57.841Z,12.27
2023-01-30T15:38:29.627Z,12.25
2023-01-30T15:41:01.848Z,10.45
2023-01-30T15:44:10.551Z,12.57
2023-01-30T15:46:49.321Z,11.32
2023-01-30T15:49:33.795Z,10.90
2023-01-30T15:52:03.862Z,11.82
2023-01-30T15:54:32.213Z,11.52
2023-01-30T15:57:01.857Z,11.00
2023-01-30T15:59:34.916Z,12.10
2023-01-30T16:02:06.091Z,19.63
2023-01-30T16:04:34.593Z,12.15
2023-01-30T16:07:16.050Z,12.82
2023-01-30T16:09:49.686Z,10.02
2023-01-30T16:12:27.901Z,12.30
2023-01-30T16:17:56.356Z,11.15
2023-01-30T16:20:24.740Z,15.25
2023-01-30T16:22:53.279Z,13.52
2023-01-30T16:25:24.316Z,13.15
2023-01-30T16:27:53.756Z,8.30
2023-01-30T16:30:26.807Z,15.70
2023-01-30T16:32:56.959Z,11.65
2023-01-30T16:35:32.550Z,15.80
2023-01-30T16:38:03.163Z,11.77
2023-01-30T16:40:33.605Z,11.85
2023-01-30T16:43:03.284Z,12.10
2023-01-30T16:46:37.182Z,12.55
2023-01-30T16:49:07.326Z,14.18
2023-01-30T16:51:35.627Z,16.48
2023-01-30T16:54:06.067Z,17.85
2023-01-30T16:56:36.023Z,20.80
2023-01-30T16:59:04.699Z,11.57
2023-01-30T17:01:41.603Z,12.98
2023-01-30T17:04:21.408Z,19.73
2023-01-30T17:06:56.407Z,15.20
2023-01-30T17:09:48.576Z,14.60
2023-01-30T17:12:50.566Z,15.63
2023-01-30T17:15:33.891Z,15.60
2023-01-30T17:18:02.482Z,25.50
2023-01-30T17:20:47.533Z,17.13
2023-01-30T17:23:19.870Z,13.43
2023-01-30T17:25:50.003Z,11.15
2023-01-30T17:28:21.662Z,17.08
2023-01-30T17:30:50.460Z,16.95
2023-01-30T17:33:18.945Z,15.95
2023-01-30T17:35:48.612Z,22.52
2023-01-30T17:38:16.748Z,19.65
2023-01-30T17:40:45.427Z,33.47
2023-01-30T17:43:13.564Z,19.90
2023-01-30T17:45:41.986Z,92.43
2023-01-30T17:48:13.265Z,22.40
2023-01-30T17:50:41.422Z,17.50
2023-01-30T17:53:11.009Z,16.95
2023-01-30T17:55:39.561Z,13.73
2023-01-30T17:58:07.836Z,13.25
2023-01-30T18:00:36.141Z,14.68
2023-01-30T18:03:04.341Z,14.45
2023-01-30T18:05:32.513Z,14.82
2023-01-30T18:08:01.377Z,13.45
2023-01-30T18:10:30.997Z,15.63
2023-01-30T18:12:59.167Z,10.18
2023-01-30T18:15:28.061Z,12.35
2023-01-30T18:17:56.596Z,12.85
2023-01-30T18:20:24.816Z,14.70
2023-01-30T18:22:53.141Z,12.40
2023-01-30T18:25:21.676Z,15.73
2023-01-30T18:27:51.622Z,15.43
2023-01-30T18:30:20.494Z,14.65
2023-01-30T18:32:53.891Z,13.15
2023-01-30T18:35:23.242Z,13.40
2023-01-30T18:37:51.815Z,14.68
2023-01-30T18:40:20.574Z,11.88
2023-01-30T18:42:49.114Z,15.48
2023-01-30T18:45:18.896Z,17.92
2023-01-30T18:47:47.314Z,12.05
2023-01-30T18:50:15.613Z,20.90
2023-01-30T18:52:43.782Z,14.00
2023-01-30T18:55:11.938Z,14.63
2023-01-30T18:57:40.184Z,16.20
2023-01-30T19:00:10.870Z,9.15
2023-01-30T19:02:40.461Z,10.32
2023-01-30T19:05:09.343Z,13.48
2023-01-30T19:07:37.661Z,13.20
2023-01-30T19:10:06.327Z,10.18
2023-01-30T19:12:52.041Z,14.20
2023-01-30T19:15:20.382Z,17.83
2023-01-30T19:17:49.914Z,13.77
2023-01-30T19:20:20.742Z,19.25
2023-01-30T19:22:50.557Z,19.25
2023-01-30T19:25:18.917Z,29.65
2023-01-30T19:27:47.115Z,28.33
2023-01-30T19:30:15.993Z,16.27
2023-01-30T19:32:44.229Z,16.50
2023-01-30T19:35:13.837Z,22.83
2023-01-30T19:37:42.184Z,18.48
2023-01-30T19:40:11.882Z,13.77
2023-01-30T19:42:43.881Z,15.10
2023-01-30T19:45:13.630Z,11.35
2023-01-30T19:47:41.966Z,15.57
2023-01-30T19:50:11.633Z,14.68
2023-01-30T19:52:42.043Z,16.65
2023-01-30T19:55:10.720Z,13.68
2023-01-30T19:57:39.016Z,14.80
2023-01-30T20:00:08.507Z,16.40
2023-01-30T20:02:36.726Z,13.75
2023-01-30T20:05:05.164Z,17.60
2023-01-30T20:07:35.027Z,17.02
2023-01-30T20:10:05.073Z,15.55
2023-01-30T20:12:34.904Z,16.70
2023-01-30T20:15:04.844Z,18.20
2023-01-30T20:17:33.565Z,19.52
2023-01-30T20:20:01.754Z,24.02
2023-01-30T20:22:29.996Z,19.08
2023-01-30T20:24:58.307Z,31.27
2023-01-30T20:27:27.900Z,19.08
2023-01-30T20:29:56.101Z,20.25
2023-01-30T20:32:24.317Z,22.17
2023-01-30T20:34:52.448Z,19.48
2023-01-30T20:37:20.625Z,26.13
2023-01-30T20:39:51.053Z,26.40
2023-01-30T20:42:19.820Z,30.38
2023-01-30T20:44:49.367Z,30.20
2023-01-30T20:47:17.560Z,28.40
2023-01-30T20:49:45.737Z,24.40
2023-01-30T20:52:13.874Z,27.23
2023-01-30T20:54:42.023Z,22.92
2023-01-30T20:57:10.959Z,23.50
2023-01-30T20:59:39.147Z,25.08
2023-01-30T21:02:09.821Z,23.73
2023-01-30T21:04:38.862Z,25.02
2023-01-30T21:07:07.242Z,24.38
2023-01-30T21:09:35.414Z,18.30
2023-01-30T21:12:03.561Z,29.10
2023-01-30T21:14:31.762Z,27.52
2023-01-30T21:17:00.332Z,20.15
2023-01-30T21:19:29.947Z,21.80
2023-01-30T21:21:58.239Z,29.67
2023-01-30T21:24:29.609Z,33.65
2023-01-30T21:26:58.309Z,22.63
2023-01-30T21:29:28.165Z,31.73
2023-01-30T21:31:57.212Z,27.45
2023-01-30T21:34:26.822Z,24.67
2023-01-30T21:37:13.585Z,15.23
2023-01-30T21:39:59.009Z,15.68
2023-01-30T21:42:44.909Z,25.42
2023-01-30T21:45:13.070Z,16.15
2023-01-30T21:47:41.299Z,22.38
2023-01-30T21:50:10.888Z,23.35
2023-01-30T21:52:40.815Z,25.55
2023-01-30T21:55:10.003Z,25.83
2023-01-30T21:57:38.935Z,20.35
2023-01-30T22:00:08.592Z,17.27
2023-01-30T22:02:36.940Z,13.82
2023-01-30T22:05:05.734Z,13.80
2023-01-30T22:07:34.394Z,17.88
2023-01-30T22:10:04.087Z,10.68
2023-01-30T22:12:32.726Z,15.23
2023-01-30T22:15:01.168Z,16.50
2023-01-30T22:17:29.651Z,16.67
2023-01-30T22:19:57.969Z,11.00
2023-01-30T22:22:26.671Z,15.48
2023-01-30T22:24:55.119Z,11.43
2023-01-30T22:27:24.895Z,13.98
2023-01-30T22:29:53.163Z,15.27
2023-01-30T22:32:21.603Z,16.67
2023-01-30T22:34:49.996Z,9.88
2023-01-30T22:37:18.319Z,14.88
2023-01-30T22:39:46.658Z,17.95
2023-01-30T22:42:15.040Z,17.77
2023-01-30T22:44:44.913Z,12.38
2023-01-30T22:47:13.278Z,11.00
2023-01-30T22:49:41.607Z,11.20
2023-01-30T22:52:09.839Z,14.82
2023-01-30T22:54:38.236Z,14.98
2023-01-30T22:57:06.463Z,11.57
2023-01-30T22:59:34.818Z,16.90
2023-01-30T23:02:04.462Z,14.75
2023-01-30T23:04:33.046Z,11.10
2023-01-30T23:07:01.549Z,11.73
2023-01-30T23:09:29.758Z,12.43
2023-01-30T23:12:16.312Z,13.40
2023-01-30T23:14:45.111Z,12.35
2023-01-30T23:17:32.078Z,11.95
2023-01-30T23:20:00.388Z,8.82
2023-01-30T23:22:28.827Z,15.20
2023-01-30T23:24:57.053Z,11.73
2023-01-30T23:27:25.269Z,15.75
2023-01-30T23:29:53.441Z,12.32
2023-01-30T23:32:23.876Z,8.80
2023-01-30T23:34:52.169Z,17.00
2023-01-30T23:37:40.853Z,10.90
2023-01-30T23:40:10.666Z,7.82
2023-01-30T23:42:38.901Z,12.55
2023-01-30T23:45:08.430Z,10.65
2023-01-30T23:47:38.173Z,12.38
2023-01-30T23:50:06.874Z,10.85
2023-01-30T23:52:35.227Z,15.48
2023-01-30T23:55:03.434Z,18.90
2023-01-30T23:57:31.595Z,17.90
2023-01-30T23:59:59.852Z,13.02
